Date,TemperatureHighF,TemperatureAvgF,TemperatureLowF,DewpointHighF,DewpointAvgF,DewpointLowF,HumidityHigh,HumidityAvg,HumidityLow,PressureMaxIn,PressureMinIn,WindSpeedMaxMPH,WindSpeedAvgMPH,GustSpeedMaxMPH,PrecipitationSumIn
2013-1-11,46,46,46,45,45,45,96,96,96,29.96,29.96,0,0,0,0.00
2013-1-13,57,57,57,56,56,56,95,95,95,29.79,29.79,3,3,4,0.00
2013-1-23,17,17,17,4,4,4,55,55,55,30.13,30.13,1,1,2,0.00
2013-1-28,49,49,49,48,48,48,97,97,97,30.03,30.03,2,2,6,0.00
2013-1-31,24,24,24,19,18,18,80,79,78,29.83,29.83,3,3,12,0.00
2013-2-27,38,37,37,36,35,35,92,92,92,29.63,29.63,2,1,6,0.00
2013-3-3,27,27,27,21,21,21,79,79,79,29.96,29.96,4,4,0,0.00
2013-3-9,44,44,44,33,33,33,64,64,64,30.14,30.14,0,0,0,0.00
2013-3-18,44,44,44,43,43,43,97,97,97,29.61,29.61,0,0,0,0.00
2013-3-19,33,33,33,21,21,21,62,62,62,29.86,29.86,7,7,10,0.00
2013-3-23,42,42,42,24,24,24,49,49,49,30.01,30.01,3,3,4,0.00
2013-4-4,54,46,41,25,21,14,52,39,20,30.02,29.97,4,1,4,0.00
2013-5-6,71,71,71,52,52,52,51,51,51,29.96,29.96,5,5,8,0.00
2013-5-11,53,53,53,49,49,49,86,86,86,29.83,29.83,0,0,1,0.00
2013-5-12,49,49,49,34,34,34,56,56,56,29.97,29.97,5,5,10,0.00
2013-5-16,62,62,62,60,60,60,94,94,94,29.80,29.80,0,0,1,0.00
2013-5-18,78,78,78,62,62,62,59,59,59,30.03,30.03,0,0,0,0.00
2013-5-21,77,77,77,70,70,70,79,79,79,29.92,29.92,3,3,0,0.00
2013-6-1,82,82,82,71,71,71,69,69,69,29.89,29.89,8,8,9,0.00
2013-6-2,67,67,67,66,66,66,96,96,95,29.81,29.80,1,0,2,0.00
2013-6-6,65,65,65,64,64,64,98,98,98,29.86,29.86,0,0,0,0.00
2013-6-9,77,77,77,66,66,66,69,69,69,30.02,30.02,0,0,0,0.00
2013-6-12,79,74,70,74,71,68,94,89,84,29.80,29.74,1,0,6,0.07
2013-6-13,70,68,66,68,66,64,96,95,94,29.73,29.59,3,0,14,0.19
2013-6-16,71,71,71,67,67,67,87,87,87,29.93,29.93,4,4,4,0.00
2013-6-23,81,81,81,72,72,72,74,74,74,30.13,30.13,0,0,0,0.00
2013-6-25,68,68,68,67,67,67,95,95,95,29.95,29.95,0,0,6,0.00
2013-6-26,74,70,68,71,68,67,98,94,89,29.95,29.82,0,0,6,0.00
2013-7-1,69,69,69,67,67,67,94,94,94,29.92,29.92,0,0,1,0.00
2013-7-8,73,73,73,68,68,68,84,84,84,30.13,30.13,0,0,1,0.00
2013-7-9,73,72,71,72,71,69,98,98,95,30.02,29.96,0,0,10,0.28
2013-7-10,71,53,71,71,28,-100,99,74,99,29.94,29.94,0,0,0,0.00
2013-7-11,66,66,66,65,65,65,98,98,98,29.98,29.98,0,0,0,0.00
2013-7-19,89,89,89,77,77,77,68,68,68,29.94,29.94,0,0,2,0.00
2013-7-23,76,76,76,74,74,74,94,94,94,29.69,29.69,0,0,1,0.00
2013-8-3,65,65,65,64,64,64,97,97,97,29.98,29.98,0,0,0,0.00
2013-8-20,68,68,68,66,66,66,92,92,92,30.16,30.16,0,0,0,0.00
2013-9-1,71,71,71,70,70,70,98,98,98,29.82,29.82,0,0,0,0.00
2013-9-10,83,83,83,77,77,77,81,81,81,30.10,30.10,0,0,0,0.00
2013-9-21,61,61,61,60,60,60,97,97,97,29.72,29.72,0,0,0,0.00
2013-10-5,68,68,68,67,67,67,98,98,98,29.98,29.98,0,0,0,0.00
2013-10-6,68,68,68,67,67,67,98,98,98,29.98,29.98,0,0,0,0.00
2013-10-21,59,59,59,43,43,43,55,55,55,29.86,29.86,0,0,0,0.00
2013-10-26,45,45,45,35,35,35,69,69,69,29.95,29.95,0,0,0,0.00
2013-11-1,57,57,57,55,55,55,94,94,94,29.41,29.41,3,3,5,0.00
2013-11-7,42,42,42,39,39,39,90,90,90,30.09,30.09,5,5,5,0.00
2013-11-10,45,45,45,33,33,33,63,63,63,30.18,30.18,0,0,2,0.00
2013-11-17,61,61,61,57,57,57,87,87,87,29.64,29.64,9,9,10,0.00
2013-12-10,27,27,27,10,10,10,48,48,48,30.04,30.04,7,7,12,0.00